sensor_id;sensor_type;location;lat;lon;timestamp;pressure;altitude;pressure_sealevel;temperature;humidity
41686;BME280;27370;42.764;23.432;2023-08-06T00:00:51;94524.66;;;17.43;100.00
41686;BME280;27370;42.764;23.432;2023-08-06T00:03:17;94524.56;;;17.38;100.00
41686;BME280;27370;42.764;23.432;2023-08-06T00:05:42;94519.13;;;17.23;100.00
41686;BME280;27370;42.764;23.432;2023-08-06T00:08:08;94521.28;;;17.34;100.00
41686;BME280;27370;42.764;23.432;2023-08-06T00:10:33;94504.13;;;17.19;100.00
41686;BME280;27370;42.764;23.432;2023-08-06T00:12:59;94504.34;;;17.15;100.00
41686;BME280;27370;42.764;23.432;2023-08-06T00:15:24;94500.03;;;17.08;100.00
41686;BME280;27370;42.764;23.432;2023-08-06T00:17:50;94476.28;;;17.00;100.00
41686;BME280;27370;42.764;23.432;2023-08-06T00:20:15;94492.50;;;17.03;100.00
41686;BME280;27370;42.764;23.432;2023-08-06T00:22:41;94507.19;;;17.06;100.00
41686;BME280;27370;42.764;23.432;2023-08-06T00:25:07;94502.00;;;17.08;100.00
41686;BME280;27370;42.764;23.432;2023-08-06T00:27:32;94505.56;;;17.14;100.00
41686;BME280;27370;42.764;23.432;2023-08-06T00:29:58;94510.34;;;17.19;100.00
41686;BME280;27370;42.764;23.432;2023-08-06T00:32:24;94501.50;;;17.24;100.00
41686;BME280;27370;42.764;23.432;2023-08-06T00:34:49;94481.31;;;17.22;100.00
41686;BME280;27370;42.764;23.432;2023-08-06T00:37:16;94476.59;;;17.22;100.00
41686;BME280;27370;42.764;23.432;2023-08-06T00:39:42;94485.84;;;17.25;100.00
41686;BME280;27370;42.764;23.432;2023-08-06T00:42:08;94487.19;;;17.35;100.00
41686;BME280;27370;42.764;23.432;2023-08-06T00:44:34;94470.78;;;17.35;100.00
41686;BME280;27370;42.764;23.432;2023-08-06T00:47:00;94472.28;;;17.36;100.00
41686;BME280;27370;42.764;23.432;2023-08-06T00:49:26;94457.50;;;17.28;100.00
41686;BME280;27370;42.764;23.432;2023-08-06T00:51:52;94469.69;;;17.27;100.00
41686;BME280;27370;42.764;23.432;2023-08-06T00:54:17;94465.53;;;17.31;100.00
41686;BME280;27370;42.764;23.432;2023-08-06T00:56:43;94462.16;;;17.22;100.00
41686;BME280;27370;42.764;23.432;2023-08-06T00:59:09;94452.72;;;17.23;100.00
41686;BME280;27370;42.764;23.432;2023-08-06T01:01:36;94452.31;;;17.30;100.00
41686;BME280;27370;42.764;23.432;2023-08-06T01:04:01;94466.88;;;17.41;100.00
41686;BME280;27370;42.764;23.432;2023-08-06T01:06:46;94463.06;;;17.33;100.00
41686;BME280;27370;42.764;23.432;2023-08-06T01:17:38;94433.38;;;17.26;100.00
41686;BME280;27370;42.764;23.432;2023-08-06T01:20:05;94414.69;;;17.25;100.00
41686;BME280;27370;42.764;23.432;2023-08-06T01:22:31;94417.97;;;17.29;100.00
41686;BME280;27370;42.764;23.432;2023-08-06T01:24:56;94429.19;;;17.31;100.00
41686;BME280;27370;42.764;23.432;2023-08-06T01:27:28;94432.63;;;17.26;100.00
41686;BME280;27370;42.764;23.432;2023-08-06T01:30:17;94451.56;;;17.29;100.00
41686;BME280;27370;42.764;23.432;2023-08-06T01:32:49;94436.16;;;17.32;100.00
41686;BME280;27370;42.764;23.432;2023-08-06T01:35:17;94426.47;;;17.31;100.00
41686;BME280;27370;42.764;23.432;2023-08-06T01:37:45;94429.06;;;17.40;100.00
41686;BME280;27370;42.764;23.432;2023-08-06T01:40:12;94428.66;;;17.47;100.00
41686;BME280;27370;42.764;23.432;2023-08-06T01:42:38;94428.03;;;17.37;100.00
41686;BME280;27370;42.764;23.432;2023-08-06T01:45:07;94429.00;;;17.34;100.00
41686;BME280;27370;42.764;23.432;2023-08-06T01:47:33;94423.66;;;17.45;100.00
41686;BME280;27370;42.764;23.432;2023-08-06T01:49:59;94424.00;;;17.53;100.00
41686;BME280;27370;42.764;23.432;2023-08-06T01:52:26;94420.44;;;17.47;100.00
41686;BME280;27370;42.764;23.432;2023-08-06T01:54:51;94422.00;;;17.54;100.00
41686;BME280;27370;42.764;23.432;2023-08-06T01:57:17;94414.50;;;17.49;100.00
41686;BME280;27370;42.764;23.432;2023-08-06T01:59:42;94418.72;;;17.50;100.00
41686;BME280;27370;42.764;23.432;2023-08-06T02:02:08;94416.00;;;17.50;100.00
41686;BME280;27370;42.764;23.432;2023-08-06T02:04:33;94424.59;;;17.42;100.00
41686;BME280;27370;42.764;23.432;2023-08-06T02:06:59;94435.16;;;17.50;100.00
41686;BME280;27370;42.764;23.432;2023-08-06T02:09:24;94431.66;;;17.49;100.00
41686;BME280;27370;42.764;23.432;2023-08-06T02:11:51;94428.94;;;17.49;100.00
41686;BME280;27370;42.764;23.432;2023-08-06T02:14:16;94412.34;;;17.58;100.00
41686;BME280;27370;42.764;23.432;2023-08-06T02:16:42;94396.34;;;17.51;100.00
41686;BME280;27370;42.764;23.432;2023-08-06T02:19:07;94391.91;;;17.54;100.00
41686;BME280;27370;42.764;23.432;2023-08-06T02:21:33;94391.63;;;17.52;100.00
41686;BME280;27370;42.764;23.432;2023-08-06T02:23:58;94389.09;;;17.48;100.00
41686;BME280;27370;42.764;23.432;2023-08-06T02:26:24;94406.34;;;17.54;100.00
41686;BME280;27370;42.764;23.432;2023-08-06T02:28:49;94420.50;;;17.53;100.00
41686;BME280;27370;42.764;23.432;2023-08-06T02:31:15;94428.38;;;17.45;100.00
41686;BME280;27370;42.764;23.432;2023-08-06T02:33:40;94423.31;;;17.38;100.00
41686;BME280;27370;42.764;23.432;2023-08-06T02:36:06;94431.78;;;17.40;100.00
41686;BME280;27370;42.764;23.432;2023-08-06T02:38:32;94452.53;;;17.47;100.00
41686;BME280;27370;42.764;23.432;2023-08-06T02:40:58;94464.50;;;17.49;100.00
41686;BME280;27370;42.764;23.432;2023-08-06T02:43:23;94479.81;;;17.41;100.00
41686;BME280;27370;42.764;23.432;2023-08-06T02:45:49;94484.06;;;17.42;100.00
41686;BME280;27370;42.764;23.432;2023-08-06T02:48:15;94485.59;;;17.43;100.00
41686;BME280;27370;42.764;23.432;2023-08-06T02:50:41;94475.41;;;17.43;100.00
41686;BME280;27370;42.764;23.432;2023-08-06T02:53:08;94462.84;;;17.37;100.00
41686;BME280;27370;42.764;23.432;2023-08-06T02:55:34;94447.03;;;17.06;100.00
41686;BME280;27370;42.764;23.432;2023-08-06T02:58:02;94460.50;;;17.09;100.00
41686;BME280;27370;42.764;23.432;2023-08-06T03:00:32;94464.06;;;17.15;100.00
41686;BME280;27370;42.764;23.432;2023-08-06T03:02:59;94460.03;;;17.31;100.00
41686;BME280;27370;42.764;23.432;2023-08-06T03:05:35;94454.09;;;17.33;100.00
41686;BME280;27370;42.764;23.432;2023-08-06T03:08:01;94430.41;;;17.09;100.00
41686;BME280;27370;42.764;23.432;2023-08-06T03:10:29;94426.31;;;16.99;100.00
41686;BME280;27370;42.764;23.432;2023-08-06T03:12:57;94418.22;;;16.90;100.00
41686;BME280;27370;42.764;23.432;2023-08-06T03:15:23;94409.16;;;16.99;100.00
41686;BME280;27370;42.764;23.432;2023-08-06T03:17:49;94400.63;;;16.97;100.00
41686;BME280;27370;42.764;23.432;2023-08-06T03:20:18;94409.06;;;16.93;100.00
41686;BME280;27370;42.764;23.432;2023-08-06T03:22:44;94416.47;;;17.07;100.00
41686;BME280;27370;42.764;23.432;2023-08-06T03:25:11;94415.84;;;17.18;100.00
41686;BME280;27370;42.764;23.432;2023-08-06T03:27:37;94397.31;;;17.07;100.00
41686;BME280;27370;42.764;23.432;2023-08-06T03:30:03;94364.16;;;17.00;100.00
41686;BME280;27370;42.764;23.432;2023-08-06T03:32:30;94335.00;;;16.97;100.00
41686;BME280;27370;42.764;23.432;2023-08-06T03:34:56;94331.47;;;17.11;100.00
41686;BME280;27370;42.764;23.432;2023-08-06T03:37:25;94305.81;;;17.08;100.00
41686;BME280;27370;42.764;23.432;2023-08-06T03:39:51;94312.06;;;17.09;100.00
41686;BME280;27370;42.764;23.432;2023-08-06T03:42:17;94372.44;;;17.05;100.00
41686;BME280;27370;42.764;23.432;2023-08-06T03:44:42;94419.75;;;17.11;100.00
41686;BME280;27370;42.764;23.432;2023-08-06T03:47:09;94429.44;;;17.12;100.00
41686;BME280;27370;42.764;23.432;2023-08-06T03:49:35;94451.53;;;17.09;100.00
41686;BME280;27370;42.764;23.432;2023-08-06T03:52:01;94442.84;;;17.10;100.00
41686;BME280;27370;42.764;23.432;2023-08-06T03:54:26;94444.09;;;17.09;100.00
41686;BME280;27370;42.764;23.432;2023-08-06T03:56:52;94461.03;;;17.13;100.00
41686;BME280;27370;42.764;23.432;2023-08-06T03:59:17;94481.88;;;17.26;100.00
41686;BME280;27370;42.764;23.432;2023-08-06T04:01:45;94501.22;;;17.22;100.00
41686;BME280;27370;42.764;23.432;2023-08-06T04:04:10;94508.47;;;17.25;100.00
41686;BME280;27370;42.764;23.432;2023-08-06T04:06:35;94481.94;;;17.31;100.00
41686;BME280;27370;42.764;23.432;2023-08-06T04:09:01;94493.88;;;17.49;100.00
41686;BME280;27370;42.764;23.432;2023-08-06T04:11:26;94501.59;;;17.50;100.00
41686;BME280;27370;42.764;23.432;2023-08-06T04:13:52;94489.34;;;17.66;100.00
41686;BME280;27370;42.764;23.432;2023-08-06T04:16:19;94470.00;;;17.69;100.00
41686;BME280;27370;42.764;23.432;2023-08-06T04:18:46;94487.22;;;17.55;100.00
41686;BME280;27370;42.764;23.432;2023-08-06T04:21:12;94502.38;;;17.71;100.00
41686;BME280;27370;42.764;23.432;2023-08-06T04:23:38;94501.38;;;17.68;100.00
41686;BME280;27370;42.764;23.432;2023-08-06T04:26:06;94495.88;;;17.68;100.00
41686;BME280;27370;42.764;23.432;2023-08-06T04:28:33;94486.94;;;17.53;100.00
41686;BME280;27370;42.764;23.432;2023-08-06T04:30:59;94456.91;;;17.59;100.00
41686;BME280;27370;42.764;23.432;2023-08-06T04:33:25;94464.38;;;17.58;100.00
41686;BME280;27370;42.764;23.432;2023-08-06T04:35:54;94454.53;;;17.46;100.00
41686;BME280;27370;42.764;23.432;2023-08-06T04:38:24;94451.97;;;17.42;100.00
41686;BME280;27370;42.764;23.432;2023-08-06T04:40:51;94450.47;;;17.41;100.00
41686;BME280;27370;42.764;23.432;2023-08-06T04:43:17;94439.25;;;17.39;100.00
41686;BME280;27370;42.764;23.432;2023-08-06T04:45:47;94440.09;;;17.45;100.00
41686;BME280;27370;42.764;23.432;2023-08-06T04:48:13;94428.25;;;17.54;100.00
41686;BME280;27370;42.764;23.432;2023-08-06T04:50:38;94422.59;;;17.63;100.00
41686;BME280;27370;42.764;23.432;2023-08-06T04:53:08;94403.56;;;17.69;100.00
41686;BME280;27370;42.764;23.432;2023-08-06T04:55:33;94395.44;;;17.80;100.00
41686;BME280;27370;42.764;23.432;2023-08-06T04:57:58;94396.72;;;17.85;100.00
41686;BME280;27370;42.764;23.432;2023-08-06T05:00:24;94391.47;;;17.81;100.00
41686;BME280;27370;42.764;23.432;2023-08-06T05:02:49;94402.81;;;17.94;100.00
41686;BME280;27370;42.764;23.432;2023-08-06T05:05:15;94403.38;;;17.78;100.00
41686;BME280;27370;42.764;23.432;2023-08-06T05:07:40;94402.22;;;17.85;100.00
41686;BME280;27370;42.764;23.432;2023-08-06T05:10:06;94410.00;;;17.92;100.00
41686;BME280;27370;42.764;23.432;2023-08-06T05:12:31;94431.06;;;18.06;100.00
41686;BME280;27370;42.764;23.432;2023-08-06T05:14:57;94433.56;;;18.10;100.00
41686;BME280;27370;42.764;23.432;2023-08-06T05:17:22;94439.50;;;18.02;100.00
41686;BME280;27370;42.764;23.432;2023-08-06T05:19:49;94449.13;;;18.18;100.00
41686;BME280;27370;42.764;23.432;2023-08-06T05:22:15;94436.25;;;18.30;100.00
41686;BME280;27370;42.764;23.432;2023-08-06T05:24:40;94441.53;;;18.33;100.00
41686;BME280;27370;42.764;23.432;2023-08-06T05:27:05;94440.44;;;18.25;100.00
41686;BME280;27370;42.764;23.432;2023-08-06T05:29:31;94433.66;;;18.15;100.00
41686;BME280;27370;42.764;23.432;2023-08-06T05:31:56;94439.44;;;18.23;100.00
41686;BME280;27370;42.764;23.432;2023-08-06T05:34:22;94433.69;;;18.21;100.00
41686;BME280;27370;42.764;23.432;2023-08-06T05:36:47;94419.69;;;18.13;100.00
41686;BME280;27370;42.764;23.432;2023-08-06T05:39:13;94416.00;;;18.22;100.00
41686;BME280;27370;42.764;23.432;2023-08-06T05:41:38;94416.72;;;18.17;100.00
41686;BME280;27370;42.764;23.432;2023-08-06T05:44:04;94405.34;;;18.29;100.00
41686;BME280;27370;42.764;23.432;2023-08-06T05:46:29;94387.53;;;18.40;100.00
41686;BME280;27370;42.764;23.432;2023-08-06T05:48:55;94383.72;;;18.63;100.00
41686;BME280;27370;42.764;23.432;2023-08-06T05:51:20;94393.25;;;18.73;100.00
41686;BME280;27370;42.764;23.432;2023-08-06T05:53:46;94399.31;;;18.83;100.00
41686;BME280;27370;42.764;23.432;2023-08-06T05:56:12;94401.81;;;18.81;100.00
41686;BME280;27370;42.764;23.432;2023-08-06T05:58:38;94396.84;;;18.85;100.00
41686;BME280;27370;42.764;23.432;2023-08-06T06:01:03;94405.63;;;19.00;100.00
41686;BME280;27370;42.764;23.432;2023-08-06T06:03:28;94402.53;;;19.24;100.00
41686;BME280;27370;42.764;23.432;2023-08-06T06:05:54;94404.16;;;19.53;100.00
41686;BME280;27370;42.764;23.432;2023-08-06T06:08:19;94414.75;;;19.77;100.00
41686;BME280;27370;42.764;23.432;2023-08-06T06:10:45;94415.81;;;20.13;100.00
41686;BME280;27370;42.764;23.432;2023-08-06T06:13:10;94412.34;;;20.35;100.00
41686;BME280;27370;42.764;23.432;2023-08-06T06:15:36;94417.38;;;20.75;100.00
41686;BME280;27370;42.764;23.432;2023-08-06T06:18:01;94419.09;;;21.06;100.00
41686;BME280;27370;42.764;23.432;2023-08-06T06:20:27;94419.88;;;20.73;100.00
41686;BME280;27370;42.764;23.432;2023-08-06T06:22:52;94428.63;;;20.55;100.00
41686;BME280;27370;42.764;23.432;2023-08-06T06:25:18;94424.88;;;20.47;100.00
41686;BME280;27370;42.764;23.432;2023-08-06T06:27:43;94414.34;;;20.34;100.00
41686;BME280;27370;42.764;23.432;2023-08-06T06:30:09;94418.59;;;20.30;100.00
41686;BME280;27370;42.764;23.432;2023-08-06T06:32:34;94428.63;;;20.83;100.00
41686;BME280;27370;42.764;23.432;2023-08-06T06:35:00;64952.78;;;-141.99;100.00
41686;BME280;27370;42.764;23.432;2023-08-06T06:37:26;64952.78;;;-141.99;100.00
41686;BME280;27370;42.764;23.432;2023-08-06T06:39:51;64952.78;;;-141.99;100.00
41686;BME280;27370;42.764;23.432;2023-08-06T06:42:17;64952.78;;;-141.99;100.00
41686;BME280;27370;42.764;23.432;2023-08-06T06:44:46;64952.78;;;-141.99;100.00
41686;BME280;27370;42.764;23.432;2023-08-06T06:47:12;94383.94;;;23.00;100.00
41686;BME280;27370;42.764;23.432;2023-08-06T06:49:37;64952.78;;;-141.99;100.00
41686;BME280;27370;42.764;23.432;2023-08-06T06:52:03;64952.78;;;-141.99;100.00
41686;BME280;27370;42.764;23.432;2023-08-06T06:54:28;64952.78;;;-141.99;100.00
41686;BME280;27370;42.764;23.432;2023-08-06T06:56:54;64952.78;;;-141.99;100.00
41686;BME280;27370;42.764;23.432;2023-08-06T06:59:19;64952.78;;;-141.99;100.00
41686;BME280;27370;42.764;23.432;2023-08-06T07:01:45;64952.78;;;-141.99;100.00
41686;BME280;27370;42.764;23.432;2023-08-06T07:04:10;64952.78;;;-141.99;100.00
41686;BME280;27370;42.764;23.432;2023-08-06T07:06:36;64952.78;;;-141.99;100.00
41686;BME280;27370;42.764;23.432;2023-08-06T07:09:01;64952.78;;;-141.99;100.00
41686;BME280;27370;42.764;23.432;2023-08-06T07:11:27;64952.78;;;-141.99;100.00
41686;BME280;27370;42.764;23.432;2023-08-06T07:13:56;64952.78;;;-141.99;100.00
41686;BME280;27370;42.764;23.432;2023-08-06T07:16:23;64952.78;;;-141.99;100.00
41686;BME280;27370;42.764;23.432;2023-08-06T07:18:48;64952.78;;;-141.99;100.00
41686;BME280;27370;42.764;23.432;2023-08-06T07:21:14;64952.78;;;-141.99;100.00
41686;BME280;27370;42.764;23.432;2023-08-06T07:23:39;64952.78;;;-141.99;100.00
41686;BME280;27370;42.764;23.432;2023-08-06T07:26:05;64952.78;;;-141.99;100.00
41686;BME280;27370;42.764;23.432;2023-08-06T07:28:30;64952.78;;;-141.99;100.00
41686;BME280;27370;42.764;23.432;2023-08-06T07:30:56;64952.78;;;-141.99;100.00
41686;BME280;27370;42.764;23.432;2023-08-06T07:33:21;64952.78;;;-141.99;100.00
41686;BME280;27370;42.764;23.432;2023-08-06T07:35:47;64952.78;;;-141.99;100.00
41686;BME280;27370;42.764;23.432;2023-08-06T07:38:12;64952.78;;;-141.99;100.00
41686;BME280;27370;42.764;23.432;2023-08-06T07:40:38;64952.78;;;-141.99;100.00
41686;BME280;27370;42.764;23.432;2023-08-06T07:43:04;64952.78;;;-141.99;100.00
41686;BME280;27370;42.764;23.432;2023-08-06T07:45:36;64952.78;;;-141.99;100.00
41686;BME280;27370;42.764;23.432;2023-08-06T07:48:03;64952.78;;;-141.99;100.00
41686;BME280;27370;42.764;23.432;2023-08-06T07:50:29;64952.78;;;-141.99;100.00
41686;BME280;27370;42.764;23.432;2023-08-06T07:52:54;64952.78;;;-141.99;100.00
41686;BME280;27370;42.764;23.432;2023-08-06T07:55:20;64952.78;;;-141.99;100.00
41686;BME280;27370;42.764;23.432;2023-08-06T07:57:45;64952.78;;;-141.99;100.00
41686;BME280;27370;42.764;23.432;2023-08-06T08:00:11;64952.78;;;-141.99;100.00
41686;BME280;27370;42.764;23.432;2023-08-06T08:02:40;64952.78;;;-141.99;100.00
41686;BME280;27370;42.764;23.432;2023-08-06T08:05:05;64952.78;;;-141.99;100.00
41686;BME280;27370;42.764;23.432;2023-08-06T08:07:33;64952.78;;;-141.99;100.00
41686;BME280;27370;42.764;23.432;2023-08-06T08:09:59;64952.78;;;-141.99;100.00
41686;BME280;27370;42.764;23.432;2023-08-06T08:12:24;64952.78;;;-141.99;100.00
41686;BME280;27370;42.764;23.432;2023-08-06T08:14:50;64952.78;;;-141.99;100.00
41686;BME280;27370;42.764;23.432;2023-08-06T08:17:15;64952.78;;;-141.99;100.00
41686;BME280;27370;42.764;23.432;2023-08-06T08:19:41;64952.78;;;-141.99;100.00
41686;BME280;27370;42.764;23.432;2023-08-06T08:22:07;64952.78;;;-141.99;100.00
41686;BME280;27370;42.764;23.432;2023-08-06T08:24:32;64952.78;;;-141.99;100.00
41686;BME280;27370;42.764;23.432;2023-08-06T08:26:58;64952.78;;;-141.99;100.00
41686;BME280;27370;42.764;23.432;2023-08-06T08:29:23;64952.78;;;-141.99;100.00
41686;BME280;27370;42.764;23.432;2023-08-06T08:31:49;64952.78;;;-141.99;100.00
41686;BME280;27370;42.764;23.432;2023-08-06T08:34:16;64952.78;;;-141.99;100.00
41686;BME280;27370;42.764;23.432;2023-08-06T08:36:42;64952.78;;;-141.99;100.00
41686;BME280;27370;42.764;23.432;2023-08-06T08:39:07;64952.78;;;-141.99;100.00
41686;BME280;27370;42.764;23.432;2023-08-06T08:41:36;64952.78;;;-141.99;100.00
41686;BME280;27370;42.764;23.432;2023-08-06T08:44:02;64952.78;;;-141.99;100.00
41686;BME280;27370;42.764;23.432;2023-08-06T08:46:30;64952.78;;;-141.99;100.00
41686;BME280;27370;42.764;23.432;2023-08-06T08:48:57;64952.78;;;-141.99;100.00
41686;BME280;27370;42.764;23.432;2023-08-06T08:51:25;64952.78;;;-141.99;100.00
41686;BME280;27370;42.764;23.432;2023-08-06T08:53:53;64952.78;;;-141.99;100.00
41686;BME280;27370;42.764;23.432;2023-08-06T08:56:21;64952.78;;;-141.99;100.00
41686;BME280;27370;42.764;23.432;2023-08-06T08:58:47;64952.78;;;-141.99;100.00
41686;BME280;27370;42.764;23.432;2023-08-06T09:01:14;64952.78;;;-141.99;100.00
41686;BME280;27370;42.764;23.432;2023-08-06T09:03:40;64952.78;;;-141.99;100.00
41686;BME280;27370;42.764;23.432;2023-08-06T09:06:06;64952.78;;;-141.99;100.00
41686;BME280;27370;42.764;23.432;2023-08-06T09:08:43;64952.78;;;-141.99;100.00
41686;BME280;27370;42.764;23.432;2023-08-06T09:11:12;64952.78;;;-141.99;100.00
41686;BME280;27370;42.764;23.432;2023-08-06T09:13:38;64952.78;;;-141.99;100.00
41686;BME280;27370;42.764;23.432;2023-08-06T09:16:04;64952.78;;;-141.99;100.00
41686;BME280;27370;42.764;23.432;2023-08-06T09:18:30;64952.78;;;-141.99;100.00
41686;BME280;27370;42.764;23.432;2023-08-06T09:20:56;64952.78;;;-141.99;100.00
41686;BME280;27370;42.764;23.432;2023-08-06T09:23:28;64952.78;;;-141.99;100.00
41686;BME280;27370;42.764;23.432;2023-08-06T09:25:59;64952.78;;;-141.99;100.00
41686;BME280;27370;42.764;23.432;2023-08-06T09:28:36;64952.78;;;-141.99;100.00
41686;BME280;27370;42.764;23.432;2023-08-06T09:31:03;64952.78;;;-141.99;100.00
41686;BME280;27370;42.764;23.432;2023-08-06T09:33:29;64952.78;;;-141.99;100.00
41686;BME280;27370;42.764;23.432;2023-08-06T09:35:54;64952.78;;;-141.99;100.00
41686;BME280;27370;42.764;23.432;2023-08-06T09:38:20;64952.78;;;-141.99;100.00
41686;BME280;27370;42.764;23.432;2023-08-06T09:40:46;64952.78;;;-141.99;100.00
41686;BME280;27370;42.764;23.432;2023-08-06T09:43:12;64952.78;;;-141.99;100.00
41686;BME280;27370;42.764;23.432;2023-08-06T09:45:38;64952.78;;;-141.99;100.00
41686;BME280;27370;42.764;23.432;2023-08-06T09:48:05;64952.78;;;-141.99;100.00
41686;BME280;27370;42.764;23.432;2023-08-06T09:50:32;64952.78;;;-141.99;100.00
41686;BME280;27370;42.764;23.432;2023-08-06T09:52:59;64952.78;;;-141.99;100.00
41686;BME280;27370;42.764;23.432;2023-08-06T09:55:25;64952.78;;;-141.99;100.00
41686;BME280;27370;42.764;23.432;2023-08-06T09:57:52;64952.78;;;-141.99;100.00
41686;BME280;27370;42.764;23.432;2023-08-06T10:00:18;64952.78;;;-141.99;100.00
41686;BME280;27370;42.764;23.432;2023-08-06T10:02:46;64952.78;;;-141.99;100.00
41686;BME280;27370;42.764;23.432;2023-08-06T10:05:12;64952.78;;;-141.99;100.00
41686;BME280;27370;42.764;23.432;2023-08-06T10:07:38;64952.78;;;-141.99;100.00
41686;BME280;27370;42.764;23.432;2023-08-06T10:10:05;64952.78;;;-141.99;100.00
41686;BME280;27370;42.764;23.432;2023-08-06T10:12:34;64952.78;;;-141.99;100.00
41686;BME280;27370;42.764;23.432;2023-08-06T10:15:03;64952.78;;;-141.99;100.00
41686;BME280;27370;42.764;23.432;2023-08-06T10:17:31;64952.78;;;-141.99;100.00
41686;BME280;27370;42.764;23.432;2023-08-06T10:19:58;64952.78;;;-141.99;100.00
41686;BME280;27370;42.764;23.432;2023-08-06T10:22:24;64952.78;;;-141.99;100.00
41686;BME280;27370;42.764;23.432;2023-08-06T10:24:54;64952.78;;;-141.99;100.00
41686;BME280;27370;42.764;23.432;2023-08-06T10:27:28;64952.78;;;-141.99;100.00
41686;BME280;27370;42.764;23.432;2023-08-06T10:29:55;64952.78;;;-141.99;100.00
41686;BME280;27370;42.764;23.432;2023-08-06T10:32:20;64952.78;;;-141.99;100.00
41686;BME280;27370;42.764;23.432;2023-08-06T10:34:57;64952.78;;;-141.99;100.00
41686;BME280;27370;42.764;23.432;2023-08-06T10:37:36;64952.78;;;-141.99;100.00
41686;BME280;27370;42.764;23.432;2023-08-06T10:40:03;64952.78;;;-141.99;100.00
41686;BME280;27370;42.764;23.432;2023-08-06T10:42:31;64952.78;;;-141.99;100.00
41686;BME280;27370;42.764;23.432;2023-08-06T10:45:16;64952.78;;;-141.99;100.00
41686;BME280;27370;42.764;23.432;2023-08-06T10:47:43;64952.78;;;-141.99;100.00
41686;BME280;27370;42.764;23.432;2023-08-06T10:50:16;64952.78;;;-141.99;100.00
41686;BME280;27370;42.764;23.432;2023-08-06T10:53:05;64952.78;;;-141.99;100.00
41686;BME280;27370;42.764;23.432;2023-08-06T10:55:31;64952.78;;;-141.99;100.00
41686;BME280;27370;42.764;23.432;2023-08-06T10:57:57;64952.78;;;-141.99;100.00
41686;BME280;27370;42.764;23.432;2023-08-06T11:00:23;64952.78;;;-141.99;100.00
41686;BME280;27370;42.764;23.432;2023-08-06T11:02:50;64952.78;;;-141.99;100.00
41686;BME280;27370;42.764;23.432;2023-08-06T11:05:16;64952.78;;;-141.99;100.00
41686;BME280;27370;42.764;23.432;2023-08-06T11:07:43;64952.78;;;-141.99;100.00
41686;BME280;27370;42.764;23.432;2023-08-06T11:10:10;64952.78;;;-141.99;100.00
41686;BME280;27370;42.764;23.432;2023-08-06T11:12:36;64952.78;;;-141.99;100.00
41686;BME280;27370;42.764;23.432;2023-08-06T11:15:02;64952.78;;;-141.99;100.00
41686;BME280;27370;42.764;23.432;2023-08-06T11:17:30;64952.78;;;-141.99;100.00
41686;BME280;27370;42.764;23.432;2023-08-06T11:19:56;64952.78;;;-141.99;100.00
41686;BME280;27370;42.764;23.432;2023-08-06T11:22:24;64952.78;;;-141.99;100.00
41686;BME280;27370;42.764;23.432;2023-08-06T11:24:49;64952.78;;;-141.99;100.00
41686;BME280;27370;42.764;23.432;2023-08-06T11:27:16;64952.78;;;-141.99;100.00
41686;BME280;27370;42.764;23.432;2023-08-06T11:29:43;64952.78;;;-141.99;100.00
41686;BME280;27370;42.764;23.432;2023-08-06T11:32:10;64952.78;;;-141.99;100.00
41686;BME280;27370;42.764;23.432;2023-08-06T11:34:36;64952.78;;;-141.99;100.00
41686;BME280;27370;42.764;23.432;2023-08-06T11:37:05;64952.78;;;-141.99;100.00
41686;BME280;27370;42.764;23.432;2023-08-06T11:39:35;64952.78;;;-141.99;100.00
41686;BME280;27370;42.764;23.432;2023-08-06T11:42:11;64952.78;;;-141.99;100.00
41686;BME280;27370;42.764;23.432;2023-08-06T11:44:37;64952.78;;;-141.99;100.00
41686;BME280;27370;42.764;23.432;2023-08-06T11:47:04;64952.78;;;-141.99;100.00
41686;BME280;27370;42.764;23.432;2023-08-06T11:49:43;64952.78;;;-141.99;100.00
41686;BME280;27370;42.764;23.432;2023-08-06T11:52:14;64952.78;;;-141.99;100.00
41686;BME280;27370;42.764;23.432;2023-08-06T11:54:40;64952.78;;;-141.99;100.00
41686;BME280;27370;42.764;23.432;2023-08-06T11:57:06;64952.78;;;-141.99;100.00
41686;BME280;27370;42.764;23.432;2023-08-06T11:59:32;64952.78;;;-141.99;100.00
41686;BME280;27370;42.764;23.432;2023-08-06T12:02:01;64952.78;;;-141.99;100.00
41686;BME280;27370;42.764;23.432;2023-08-06T12:04:26;64952.78;;;-141.99;100.00
41686;BME280;27370;42.764;23.432;2023-08-06T12:06:52;64952.78;;;-141.99;100.00
41686;BME280;27370;42.764;23.432;2023-08-06T12:09:18;64952.78;;;-141.99;100.00
41686;BME280;27370;42.764;23.432;2023-08-06T12:11:44;64952.78;;;-141.99;100.00
41686;BME280;27370;42.764;23.432;2023-08-06T12:14:09;64952.78;;;-141.99;100.00
41686;BME280;27370;42.764;23.432;2023-08-06T12:16:34;64952.78;;;-141.99;100.00
41686;BME280;27370;42.764;23.432;2023-08-06T12:19:02;64952.78;;;-141.99;100.00
41686;BME280;27370;42.764;23.432;2023-08-06T12:21:29;64952.78;;;-141.99;100.00
41686;BME280;27370;42.764;23.432;2023-08-06T12:23:55;64952.78;;;-141.99;100.00
41686;BME280;27370;42.764;23.432;2023-08-06T12:26:20;64952.78;;;-141.99;100.00
41686;BME280;27370;42.764;23.432;2023-08-06T12:28:45;64952.78;;;-141.99;100.00
41686;BME280;27370;42.764;23.432;2023-08-06T12:31:11;64952.78;;;-141.99;100.00
41686;BME280;27370;42.764;23.432;2023-08-06T12:33:36;64952.78;;;-141.99;100.00
41686;BME280;27370;42.764;23.432;2023-08-06T12:36:02;64952.78;;;-141.99;100.00